sensor_id;sensor_type;location;lat;lon;timestamp;P1;durP1;ratioP1;P2;durP2;ratioP2
40373;SDS011;26079;45.958;12.492;2023-05-19T00:00:56;5.85;;;4.40;;
40373;SDS011;26079;45.958;12.492;2023-05-19T00:03:23;5.75;;;3.97;;
40373;SDS011;26079;45.958;12.492;2023-05-19T00:05:49;5.70;;;5.07;;
40373;SDS011;26079;45.958;12.492;2023-05-19T00:08:18;6.03;;;5.28;;
40373;SDS011;26079;45.958;12.492;2023-05-19T00:10:44;7.65;;;5.68;;
40373;SDS011;26079;45.958;12.492;2023-05-19T00:13:10;5.65;;;5.07;;
40373;SDS011;26079;45.958;12.492;2023-05-19T00:15:36;5.30;;;4.85;;
40373;SDS011;26079;45.958;12.492;2023-05-19T00:18:02;7.97;;;4.93;;
40373;SDS011;26079;45.958;12.492;2023-05-19T00:20:28;5.25;;;4.75;;
40373;SDS011;26079;45.958;12.492;2023-05-19T00:22:54;5.43;;;4.45;;
40373;SDS011;26079;45.958;12.492;2023-05-19T00:25:19;4.63;;;4.22;;
40373;SDS011;26079;45.958;12.492;2023-05-19T00:27:45;9.27;;;5.15;;
40373;SDS011;26079;45.958;12.492;2023-05-19T00:30:11;6.97;;;4.90;;
40373;SDS011;26079;45.958;12.492;2023-05-19T00:32:37;5.80;;;4.95;;
40373;SDS011;26079;45.958;12.492;2023-05-19T00:35:02;5.85;;;4.60;;
40373;SDS011;26079;45.958;12.492;2023-05-19T00:37:28;5.53;;;4.18;;
40373;SDS011;26079;45.958;12.492;2023-05-19T00:39:54;5.88;;;4.22;;
40373;SDS011;26079;45.958;12.492;2023-05-19T00:42:20;11.55;;;4.82;;
40373;SDS011;26079;45.958;12.492;2023-05-19T00:44:45;9.25;;;4.85;;
40373;SDS011;26079;45.958;12.492;2023-05-19T00:47:11;7.18;;;4.15;;
40373;SDS011;26079;45.958;12.492;2023-05-19T00:49:37;5.40;;;4.13;;
40373;SDS011;26079;45.958;12.492;2023-05-19T00:52:02;6.18;;;4.43;;
40373;SDS011;26079;45.958;12.492;2023-05-19T00:54:31;5.10;;;4.13;;
40373;SDS011;26079;45.958;12.492;2023-05-19T00:56:58;6.78;;;5.50;;
40373;SDS011;26079;45.958;12.492;2023-05-19T00:59:24;7.07;;;4.10;;
40373;SDS011;26079;45.958;12.492;2023-05-19T01:01:50;7.43;;;4.35;;
40373;SDS011;26079;45.958;12.492;2023-05-19T01:04:20;4.82;;;4.30;;
40373;SDS011;26079;45.958;12.492;2023-05-19T01:06:49;6.82;;;3.78;;
40373;SDS011;26079;45.958;12.492;2023-05-19T01:09:23;5.28;;;4.65;;
40373;SDS011;26079;45.958;12.492;2023-05-19T01:11:49;7.95;;;4.53;;
40373;SDS011;26079;45.958;12.492;2023-05-19T01:14:15;8.68;;;4.50;;
40373;SDS011;26079;45.958;12.492;2023-05-19T01:30:43;5.78;;;4.65;;
40373;SDS011;26079;45.958;12.492;2023-05-19T01:33:10;7.30;;;4.40;;
40373;SDS011;26079;45.958;12.492;2023-05-19T01:35:40;6.63;;;4.38;;
40373;SDS011;26079;45.958;12.492;2023-05-19T01:38:09;8.38;;;4.10;;
40373;SDS011;26079;45.958;12.492;2023-05-19T01:40:37;5.65;;;4.53;;
40373;SDS011;26079;45.958;12.492;2023-05-19T01:43:04;4.90;;;4.40;;
40373;SDS011;26079;45.958;12.492;2023-05-19T01:45:32;5.15;;;4.43;;
40373;SDS011;26079;45.958;12.492;2023-05-19T01:47:59;7.05;;;5.00;;
40373;SDS011;26079;45.958;12.492;2023-05-19T01:50:26;4.90;;;4.40;;
40373;SDS011;26079;45.958;12.492;2023-05-19T01:52:52;3.67;;;3.38;;
40373;SDS011;26079;45.958;12.492;2023-05-19T01:55:19;7.78;;;5.45;;
40373;SDS011;26079;45.958;12.492;2023-05-19T02:08:46;8.35;;;4.65;;
40373;SDS011;26079;45.958;12.492;2023-05-19T02:11:34;7.80;;;4.85;;
40373;SDS011;26079;45.958;12.492;2023-05-19T02:14:03;4.97;;;4.38;;
40373;SDS011;26079;45.958;12.492;2023-05-19T02:16:44;5.28;;;4.05;;
40373;SDS011;26079;45.958;12.492;2023-05-19T02:19:18;6.50;;;5.90;;
40373;SDS011;26079;45.958;12.492;2023-05-19T02:21:51;7.53;;;4.15;;
40373;SDS011;26079;45.958;12.492;2023-05-19T02:24:17;5.85;;;5.35;;
40373;SDS011;26079;45.958;12.492;2023-05-19T02:26:44;8.82;;;8.10;;
40373;SDS011;26079;45.958;12.492;2023-05-19T02:29:10;7.97;;;5.13;;
40373;SDS011;26079;45.958;12.492;2023-05-19T02:31:35;5.75;;;5.18;;
40373;SDS011;26079;45.958;12.492;2023-05-19T02:34:01;7.85;;;5.47;;
40373;SDS011;26079;45.958;12.492;2023-05-19T02:36:27;12.00;;;8.50;;
40373;SDS011;26079;45.958;12.492;2023-05-19T02:38:52;7.90;;;6.18;;
40373;SDS011;26079;45.958;12.492;2023-05-19T02:41:18;7.78;;;6.93;;
40373;SDS011;26079;45.958;12.492;2023-05-19T02:43:44;6.55;;;5.38;;
40373;SDS011;26079;45.958;12.492;2023-05-19T02:46:09;11.85;;;6.65;;
40373;SDS011;26079;45.958;12.492;2023-05-19T02:48:35;7.07;;;6.40;;
40373;SDS011;26079;45.958;12.492;2023-05-19T02:51:00;7.88;;;7.00;;
40373;SDS011;26079;45.958;12.492;2023-05-19T02:53:26;7.57;;;5.40;;
40373;SDS011;26079;45.958;12.492;2023-05-19T02:55:52;6.35;;;5.78;;
40373;SDS011;26079;45.958;12.492;2023-05-19T02:58:17;5.15;;;4.68;;
40373;SDS011;26079;45.958;12.492;2023-05-19T03:00:44;6.03;;;5.43;;
40373;SDS011;26079;45.958;12.492;2023-05-19T03:03:10;7.80;;;4.38;;
40373;SDS011;26079;45.958;12.492;2023-05-19T03:05:35;9.32;;;5.95;;
40373;SDS011;26079;45.958;12.492;2023-05-19T03:08:01;6.95;;;5.80;;
40373;SDS011;26079;45.958;12.492;2023-05-19T03:10:27;10.73;;;5.38;;
40373;SDS011;26079;45.958;12.492;2023-05-19T03:12:52;5.30;;;4.22;;
40373;SDS011;26079;45.958;12.492;2023-05-19T03:15:18;6.15;;;4.88;;
40373;SDS011;26079;45.958;12.492;2023-05-19T03:17:46;6.60;;;4.18;;
40373;SDS011;26079;45.958;12.492;2023-05-19T03:20:12;8.35;;;4.50;;
40373;SDS011;26079;45.958;12.492;2023-05-19T03:22:39;5.30;;;4.03;;
40373;SDS011;26079;45.958;12.492;2023-05-19T03:25:05;5.03;;;4.53;;
40373;SDS011;26079;45.958;12.492;2023-05-19T03:27:31;7.30;;;4.97;;
40373;SDS011;26079;45.958;12.492;2023-05-19T03:29:57;22.20;;;4.75;;
40373;SDS011;26079;45.958;12.492;2023-05-19T03:32:22;16.17;;;6.53;;
40373;SDS011;26079;45.958;12.492;2023-05-19T03:34:48;5.38;;;4.10;;
40373;SDS011;26079;45.958;12.492;2023-05-19T03:37:14;7.97;;;4.93;;
40373;SDS011;26079;45.958;12.492;2023-05-19T03:39:39;7.72;;;4.97;;
40373;SDS011;26079;45.958;12.492;2023-05-19T03:42:05;12.52;;;5.00;;
40373;SDS011;26079;45.958;12.492;2023-05-19T03:44:31;6.80;;;5.70;;
40373;SDS011;26079;45.958;12.492;2023-05-19T03:46:56;8.25;;;5.22;;
40373;SDS011;26079;45.958;12.492;2023-05-19T03:49:22;8.40;;;5.25;;
40373;SDS011;26079;45.958;12.492;2023-05-19T03:51:48;5.07;;;4.57;;
40373;SDS011;26079;45.958;12.492;2023-05-19T03:54:13;10.05;;;4.70;;
40373;SDS011;26079;45.958;12.492;2023-05-19T03:56:40;7.35;;;5.00;;
40373;SDS011;26079;45.958;12.492;2023-05-19T03:59:07;9.55;;;6.88;;
40373;SDS011;26079;45.958;12.492;2023-05-19T04:01:34;10.88;;;5.93;;
40373;SDS011;26079;45.958;12.492;2023-05-19T04:04:01;9.98;;;5.45;;
40373;SDS011;26079;45.958;12.492;2023-05-19T04:06:26;5.40;;;4.13;;
40373;SDS011;26079;45.958;12.492;2023-05-19T04:08:52;5.93;;;5.38;;
40373;SDS011;26079;45.958;12.492;2023-05-19T04:11:18;5.28;;;4.78;;
40373;SDS011;26079;45.958;12.492;2023-05-19T04:13:46;5.10;;;3.83;;
40373;SDS011;26079;45.958;12.492;2023-05-19T04:16:12;9.70;;;6.45;;
40373;SDS011;26079;45.958;12.492;2023-05-19T04:18:37;8.55;;;4.93;;
40373;SDS011;26079;45.958;12.492;2023-05-19T04:21:03;11.13;;;10.02;;
40373;SDS011;26079;45.958;12.492;2023-05-19T04:23:29;9.25;;;7.47;;
40373;SDS011;26079;45.958;12.492;2023-05-19T04:25:55;7.00;;;5.20;;
40373;SDS011;26079;45.958;12.492;2023-05-19T04:28:22;8.48;;;5.35;;
40373;SDS011;26079;45.958;12.492;2023-05-19T04:30:48;10.25;;;8.25;;
40373;SDS011;26079;45.958;12.492;2023-05-19T04:33:14;6.68;;;5.43;;
40373;SDS011;26079;45.958;12.492;2023-05-19T04:35:40;9.38;;;8.48;;
40373;SDS011;26079;45.958;12.492;2023-05-19T04:38:07;9.73;;;8.57;;
40373;SDS011;26079;45.958;12.492;2023-05-19T04:40:34;6.95;;;6.15;;
40373;SDS011;26079;45.958;12.492;2023-05-19T04:42:59;7.78;;;5.45;;
40373;SDS011;26079;45.958;12.492;2023-05-19T04:45:26;6.18;;;4.97;;
40373;SDS011;26079;45.958;12.492;2023-05-19T04:47:52;5.55;;;5.03;;
40373;SDS011;26079;45.958;12.492;2023-05-19T04:50:21;7.22;;;4.97;;
40373;SDS011;26079;45.958;12.492;2023-05-19T04:52:47;9.32;;;6.00;;
40373;SDS011;26079;45.958;12.492;2023-05-19T04:55:13;6.53;;;6.03;;
40373;SDS011;26079;45.958;12.492;2023-05-19T04:57:39;10.50;;;9.50;;
40373;SDS011;26079;45.958;12.492;2023-05-19T05:00:04;5.75;;;5.25;;
40373;SDS011;26079;45.958;12.492;2023-05-19T05:02:32;9.23;;;5.15;;
40373;SDS011;26079;45.958;12.492;2023-05-19T05:04:58;8.10;;;5.32;;
40373;SDS011;26079;45.958;12.492;2023-05-19T05:07:24;9.40;;;8.60;;
40373;SDS011;26079;45.958;12.492;2023-05-19T05:09:50;8.63;;;5.72;;
40373;SDS011;26079;45.958;12.492;2023-05-19T05:12:16;7.32;;;4.55;;
40373;SDS011;26079;45.958;12.492;2023-05-19T05:14:43;7.28;;;4.85;;
40373;SDS011;26079;45.958;12.492;2023-05-19T05:17:10;8.75;;;5.97;;
40373;SDS011;26079;45.958;12.492;2023-05-19T05:19:36;9.35;;;5.30;;
40373;SDS011;26079;45.958;12.492;2023-05-19T05:22:02;9.50;;;5.75;;
40373;SDS011;26079;45.958;12.492;2023-05-19T05:24:29;7.40;;;4.50;;
40373;SDS011;26079;45.958;12.492;2023-05-19T05:26:55;5.80;;;4.95;;
40373;SDS011;26079;45.958;12.492;2023-05-19T05:29:22;8.55;;;5.00;;
40373;SDS011;26079;45.958;12.492;2023-05-19T05:31:48;7.95;;;4.85;;
40373;SDS011;26079;45.958;12.492;2023-05-19T05:34:14;8.30;;;4.93;;
40373;SDS011;26079;45.958;12.492;2023-05-19T05:36:40;10.82;;;5.68;;
40373;SDS011;26079;45.958;12.492;2023-05-19T05:39:06;9.30;;;5.47;;
40373;SDS011;26079;45.958;12.492;2023-05-19T05:41:32;14.05;;;9.85;;
40373;SDS011;26079;45.958;12.492;2023-05-19T05:44:02;7.35;;;5.22;;
40373;SDS011;26079;45.958;12.492;2023-05-19T05:46:28;11.55;;;5.55;;
40373;SDS011;26079;45.958;12.492;2023-05-19T05:48:54;7.60;;;6.93;;
40373;SDS011;26079;45.958;12.492;2023-05-19T05:51:23;7.20;;;6.65;;
40373;SDS011;26079;45.958;12.492;2023-05-19T05:53:53;10.32;;;9.40;;
40373;SDS011;26079;45.958;12.492;2023-05-19T05:56:19;5.63;;;4.70;;
40373;SDS011;26079;45.958;12.492;2023-05-19T05:58:46;8.40;;;5.80;;
40373;SDS011;26079;45.958;12.492;2023-05-19T06:01:11;7.45;;;6.68;;
40373;SDS011;26079;45.958;12.492;2023-05-19T06:03:39;11.32;;;10.02;;
40373;SDS011;26079;45.958;12.492;2023-05-19T06:06:05;9.80;;;8.50;;
40373;SDS011;26079;45.958;12.492;2023-05-19T06:08:31;11.45;;;7.47;;
40373;SDS011;26079;45.958;12.492;2023-05-19T06:10:57;9.20;;;5.25;;
40373;SDS011;26079;45.958;12.492;2023-05-19T06:13:23;9.00;;;5.63;;
40373;SDS011;26079;45.958;12.492;2023-05-19T06:15:50;5.93;;;5.00;;
40373;SDS011;26079;45.958;12.492;2023-05-19T06:18:16;10.07;;;5.35;;
40373;SDS011;26079;45.958;12.492;2023-05-19T06:20:42;10.00;;;5.10;;
40373;SDS011;26079;45.958;12.492;2023-05-19T06:23:08;5.38;;;4.30;;
40373;SDS011;26079;45.958;12.492;2023-05-19T06:25:33;7.78;;;6.53;;
40373;SDS011;26079;45.958;12.492;2023-05-19T06:27:59;6.43;;;4.80;;
40373;SDS011;26079;45.958;12.492;2023-05-19T06:30:25;5.25;;;3.83;;
40373;SDS011;26079;45.958;12.492;2023-05-19T06:32:51;8.13;;;5.07;;
40373;SDS011;26079;45.958;12.492;2023-05-19T06:35:17;10.30;;;5.07;;
40373;SDS011;26079;45.958;12.492;2023-05-19T06:37:42;12.20;;;5.22;;
40373;SDS011;26079;45.958;12.492;2023-05-19T06:40:09;11.35;;;4.53;;
40373;SDS011;26079;45.958;12.492;2023-05-19T06:42:35;9.77;;;4.28;;
40373;SDS011;26079;45.958;12.492;2023-05-19T06:45:00;6.15;;;4.32;;
40373;SDS011;26079;45.958;12.492;2023-05-19T06:47:26;4.78;;;4.18;;
40373;SDS011;26079;45.958;12.492;2023-05-19T06:49:52;8.48;;;4.53;;
40373;SDS011;26079;45.958;12.492;2023-05-19T06:52:20;5.85;;;5.18;;
40373;SDS011;26079;45.958;12.492;2023-05-19T06:54:49;8.93;;;4.38;;
40373;SDS011;26079;45.958;12.492;2023-05-19T06:57:15;7.20;;;5.55;;
40373;SDS011;26079;45.958;12.492;2023-05-19T06:59:41;6.35;;;4.53;;
40373;SDS011;26079;45.958;12.492;2023-05-19T07:02:07;4.65;;;4.25;;
40373;SDS011;26079;45.958;12.492;2023-05-19T07:04:36;6.65;;;4.57;;
40373;SDS011;26079;45.958;12.492;2023-05-19T07:07:03;5.32;;;3.58;;
40373;SDS011;26079;45.958;12.492;2023-05-19T07:09:29;4.57;;;4.03;;
40373;SDS011;26079;45.958;12.492;2023-05-19T07:11:55;10.02;;;4.40;;
40373;SDS011;26079;45.958;12.492;2023-05-19T07:14:21;4.10;;;3.58;;
40373;SDS011;26079;45.958;12.492;2023-05-19T07:16:47;6.20;;;3.60;;
40373;SDS011;26079;45.958;12.492;2023-05-19T07:19:12;4.90;;;3.85;;
40373;SDS011;26079;45.958;12.492;2023-05-19T07:21:38;5.28;;;4.15;;
40373;SDS011;26079;45.958;12.492;2023-05-19T07:24:03;6.55;;;4.13;;
40373;SDS011;26079;45.958;12.492;2023-05-19T07:26:29;4.97;;;3.53;;
40373;SDS011;26079;45.958;12.492;2023-05-19T07:28:55;6.20;;;3.45;;
40373;SDS011;26079;45.958;12.492;2023-05-19T07:31:21;8.20;;;3.42;;
40373;SDS011;26079;45.958;12.492;2023-05-19T07:33:48;10.70;;;3.53;;
40373;SDS011;26079;45.958;12.492;2023-05-19T07:36:14;4.75;;;3.45;;
40373;SDS011;26079;45.958;12.492;2023-05-19T07:38:40;6.70;;;3.95;;
40373;SDS011;26079;45.958;12.492;2023-05-19T07:41:05;6.15;;;3.28;;
40373;SDS011;26079;45.958;12.492;2023-05-19T07:43:31;3.17;;;2.78;;
40373;SDS011;26079;45.958;12.492;2023-05-19T07:45:57;8.63;;;4.28;;
40373;SDS011;26079;45.958;12.492;2023-05-19T07:48:22;7.32;;;4.10;;
40373;SDS011;26079;45.958;12.492;2023-05-19T07:50:49;5.07;;;3.70;;
40373;SDS011;26079;45.958;12.492;2023-05-19T07:53:16;7.72;;;3.95;;
40373;SDS011;26079;45.958;12.492;2023-05-19T07:55:46;5.32;;;4.00;;
40373;SDS011;26079;45.958;12.492;2023-05-19T07:58:12;8.68;;;3.90;;
40373;SDS011;26079;45.958;12.492;2023-05-19T08:00:38;5.60;;;4.07;;
40373;SDS011;26079;45.958;12.492;2023-05-19T08:03:07;4.97;;;3.67;;
40373;SDS011;26079;45.958;12.492;2023-05-19T08:05:33;3.88;;;3.58;;
40373;SDS011;26079;45.958;12.492;2023-05-19T08:07:59;4.65;;;3.92;;
40373;SDS011;26079;45.958;12.492;2023-05-19T08:10:25;9.00;;;4.05;;
40373;SDS011;26079;45.958;12.492;2023-05-19T08:12:51;7.50;;;3.10;;
40373;SDS011;26079;45.958;12.492;2023-05-19T08:15:17;4.45;;;3.42;;
40373;SDS011;26079;45.958;12.492;2023-05-19T08:17:43;3.90;;;3.42;;
40373;SDS011;26079;45.958;12.492;2023-05-19T08:20:09;11.65;;;4.35;;
40373;SDS011;26079;45.958;12.492;2023-05-19T08:22:36;4.88;;;4.25;;
40373;SDS011;26079;45.958;12.492;2023-05-19T08:25:02;4.88;;;3.08;;
40373;SDS011;26079;45.958;12.492;2023-05-19T08:27:29;2.92;;;2.60;;
40373;SDS011;26079;45.958;12.492;2023-05-19T08:29:54;4.35;;;2.20;;
40373;SDS011;26079;45.958;12.492;2023-05-19T08:32:21;1.40;;;1.30;;
40373;SDS011;26079;45.958;12.492;2023-05-19T08:34:46;3.92;;;1.85;;
40373;SDS011;26079;45.958;12.492;2023-05-19T08:37:12;5.22;;;1.50;;
40373;SDS011;26079;45.958;12.492;2023-05-19T08:39:38;4.57;;;1.42;;
40373;SDS011;26079;45.958;12.492;2023-05-19T08:42:04;2.45;;;1.55;;
40373;SDS011;26079;45.958;12.492;2023-05-19T08:44:32;3.83;;;1.40;;
40373;SDS011;26079;45.958;12.492;2023-05-19T08:47:02;1.48;;;1.33;;
40373;SDS011;26079;45.958;12.492;2023-05-19T08:49:39;3.75;;;1.48;;
40373;SDS011;26079;45.958;12.492;2023-05-19T08:52:16;5.07;;;1.65;;
40373;SDS011;26079;45.958;12.492;2023-05-19T08:54:52;2.03;;;1.60;;
40373;SDS011;26079;45.958;12.492;2023-05-19T08:57:24;3.50;;;1.77;;
40373;SDS011;26079;45.958;12.492;2023-05-19T08:59:51;1.98;;;1.55;;
40373;SDS011;26079;45.958;12.492;2023-05-19T09:02:19;4.78;;;1.42;;
40373;SDS011;26079;45.958;12.492;2023-05-19T09:04:46;4.72;;;1.27;;
40373;SDS011;26079;45.958;12.492;2023-05-19T09:07:15;1.65;;;1.33;;
40373;SDS011;26079;45.958;12.492;2023-05-19T09:09:42;0.80;;;0.80;;
40373;SDS011;26079;45.958;12.492;2023-05-19T09:12:09;1.20;;;1.10;;
40373;SDS011;26079;45.958;12.492;2023-05-19T09:14:35;0.73;;;0.68;;
40373;SDS011;26079;45.958;12.492;2023-05-19T09:17:02;2.70;;;0.63;;
40373;SDS011;26079;45.958;12.492;2023-05-19T09:19:28;0.80;;;0.80;;
40373;SDS011;26079;45.958;12.492;2023-05-19T09:22:00;7.65;;;1.05;;
40373;SDS011;26079;45.958;12.492;2023-05-19T09:24:29;0.77;;;0.77;;
40373;SDS011;26079;45.958;12.492;2023-05-19T09:26:55;4.60;;;2.15;;
40373;SDS011;26079;45.958;12.492;2023-05-19T09:29:21;1.13;;;0.77;;
40373;SDS011;26079;45.958;12.492;2023-05-19T09:31:53;0.90;;;0.90;;
40373;SDS011;26079;45.958;12.492;2023-05-19T09:34:24;1.45;;;1.00;;
40373;SDS011;26079;45.958;12.492;2023-05-19T09:36:51;1.38;;;0.73;;
40373;SDS011;26079;45.958;12.492;2023-05-19T09:39:18;1.00;;;0.73;;
40373;SDS011;26079;45.958;12.492;2023-05-19T09:41:44;2.55;;;0.68;;
40373;SDS011;26079;45.958;12.492;2023-05-19T09:44:20;7.88;;;1.23;;
40373;SDS011;26079;45.958;12.492;2023-05-19T09:46:53;0.98;;;0.90;;
40373;SDS011;26079;45.958;12.492;2023-05-19T09:51:47;7.32;;;1.10;;
40373;SDS011;26079;45.958;12.492;2023-05-19T09:54:20;1.30;;;0.65;;
40373;SDS011;26079;45.958;12.492;2023-05-19T09:57:00;1.95;;;1.58;;
40373;SDS011;26079;45.958;12.492;2023-05-19T09:59:28;5.45;;;0.80;;
40373;SDS011;26079;45.958;12.492;2023-05-19T10:01:54;1.65;;;1.10;;
40373;SDS011;26079;45.958;12.492;2023-05-19T10:04:21;1.60;;;0.73;;
40373;SDS011;26079;45.958;12.492;2023-05-19T10:06:49;1.05;;;0.73;;
40373;SDS011;26079;45.958;12.492;2023-05-19T10:09:25;1.33;;;0.80;;
40373;SDS011;26079;45.958;12.492;2023-05-19T10:11:52;1.80;;;1.08;;
40373;SDS011;26079;45.958;12.492;2023-05-19T10:14:22;0.98;;;0.80;;
40373;SDS011;26079;45.958;12.492;2023-05-19T10:16:52;0.90;;;0.60;;
40373;SDS011;26079;45.958;12.492;2023-05-19T10:19:19;0.85;;;0.82;;
40373;SDS011;26079;45.958;12.492;2023-05-19T10:21:46;1.02;;;0.93;;
40373;SDS011;26079;45.958;12.492;2023-05-19T10:24:12;3.10;;;0.60;;
40373;SDS011;26079;45.958;12.492;2023-05-19T10:26:39;0.55;;;0.55;;
40373;SDS011;26079;45.958;12.492;2023-05-19T10:29:08;0.70;;;0.70;;
40373;SDS011;26079;45.958;12.492;2023-05-19T10:31:35;0.90;;;0.60;;
40373;SDS011;26079;45.958;12.492;2023-05-19T10:34:13;2.25;;;0.47;;
40373;SDS011;26079;45.958;12.492;2023-05-19T10:39:52;1.38;;;1.00;;
40373;SDS011;26079;45.958;12.492;2023-05-19T10:42:33;6.70;;;1.00;;
40373;SDS011;26079;45.958;12.492;2023-05-19T10:45:18;1.05;;;0.60;;
40373;SDS011;26079;45.958;12.492;2023-05-19T10:47:49;0.70;;;0.70;;
40373;SDS011;26079;45.958;12.492;2023-05-19T10:50:15;5.65;;;0.65;;
40373;SDS011;26079;45.958;12.492;2023-05-19T10:52:44;0.70;;;0.60;;
40373;SDS011;26079;45.958;12.492;2023-05-19T10:55:43;4.90;;;1.23;;
40373;SDS011;26079;45.958;12.492;2023-05-19T10:58:14;4.53;;;0.73;;
40373;SDS011;26079;45.958;12.492;2023-05-19T11:00:39;2.58;;;0.50;;
40373;SDS011;26079;45.958;12.492;2023-05-19T11:03:17;1.80;;;0.80;;
40373;SDS011;26079;45.958;12.492;2023-05-19T11:05:47;1.55;;;1.00;;
40373;SDS011;26079;45.958;12.492;2023-05-19T11:08:16;2.15;;;0.70;;
40373;SDS011;26079;45.958;12.492;2023-05-19T11:11:19;1.20;;;0.57;;
40373;SDS011;26079;45.958;12.492;2023-05-19T11:13:52;10.60;;;1.13;;
40373;SDS011;26079;45.958;12.492;2023-05-19T11:16:27;2.13;;;0.70;;
40373;SDS011;26079;45.958;12.492;2023-05-19T11:18:55;0.60;;;0.60;;
40373;SDS011;26079;45.958;12.492;2023-05-19T11:21:23;3.35;;;0.40;;
40373;SDS011;26079;45.958;12.492;2023-05-19T11:24:06;1.08;;;0.50;;
40373;SDS011;26079;45.958;12.492;2023-05-19T11:26:39;3.47;;;0.98;;
40373;SDS011;26079;45.958;12.492;2023-05-19T11:29:07;7.28;;;0.93;;
40373;SDS011;26079;45.958;12.492;2023-05-19T11:31:33;0.85;;;0.60;;
40373;SDS011;26079;45.958;12.492;2023-05-19T11:34:00;1.58;;;0.63;;
40373;SDS011;26079;45.958;12.492;2023-05-19T11:36:26;2.53;;;0.65;;
40373;SDS011;26079;45.958;12.492;2023-05-19T11:38:53;0.50;;;0.50;;
40373;SDS011;26079;45.958;12.492;2023-05-19T11:41:19;1.80;;;0.73;;
40373;SDS011;26079;45.958;12.492;2023-05-19T11:43:46;0.50;;;0.50;;
40373;SDS011;26079;45.958;12.492;2023-05-19T11:46:12;1.00;;;0.55;;
40373;SDS011;26079;45.958;12.492;2023-05-19T11:48:38;1.98;;;0.60;;
40373;SDS011;26079;45.958;12.492;2023-05-19T11:51:06;0.60;;;0.60;;
40373;SDS011;26079;45.958;12.492;2023-05-19T11:53:32;0.75;;;0.35;;
40373;SDS011;26079;45.958;12.492;2023-05-19T11:56:02;1.23;;;0.50;;
40373;SDS011;26079;45.958;12.492;2023-05-19T11:58:28;0.80;;;0.40;;
40373;SDS011;26079;45.958;12.492;2023-05-19T12:00:54;0.60;;;0.60;;
40373;SDS011;26079;45.958;12.492;2023-05-19T12:03:22;1.20;;;0.60;;
40373;SDS011;26079;45.958;12.492;2023-05-19T12:05:52;9.63;;;1.40;;
40373;SDS011;26079;45.958;12.492;2023-05-19T12:08:18;3.22;;;0.50;;
40373;SDS011;26079;45.958;12.492;2023-05-19T12:10:48;0.82;;;0.60;;
40373;SDS011;26079;45.958;12.492;2023-05-19T12:13:16;0.32;;;0.30;;
40373;SDS011;26079;45.958;12.492;2023-05-19T12:15:43;0.55;;;0.45;;
40373;SDS011;26079;45.958;12.492;2023-05-19T12:21:04;4.30;;;0.50;;
40373;SDS011;26079;45.958;12.492;2023-05-19T12:23:30;1.65;;;0.82;;
40373;SDS011;26079;45.958;12.492;2023-05-19T12:25:58;0.77;;;0.60;;
40373;SDS011;26079;45.958;12.492;2023-05-19T12:28:24;2.08;;;0.40;;
40373;SDS011;26079;45.958;12.492;2023-05-19T12:30:50;7.78;;;0.80;;
40373;SDS011;26079;45.958;12.492;2023-05-19T12:33:17;0.57;;;0.30;;
40373;SDS011;26079;45.958;12.492;2023-05-19T12:35:44;1.15;;;0.40;;
40373;SDS011;26079;45.958;12.492;2023-05-19T12:38:10;0.65;;;0.40;;
40373;SDS011;26079;45.958;12.492;2023-05-19T12:40:36;3.35;;;0.90;;
40373;SDS011;26079;45.958;12.492;2023-05-19T12:43:03;4.10;;;0.63;;
40373;SDS011;26079;45.958;12.492;2023-05-19T12:45:32;1.20;;;0.40;;
40373;SDS011;26079;45.958;12.492;2023-05-19T12:48:01;0.65;;;0.55;;
40373;SDS011;26079;45.958;12.492;2023-05-19T12:50:31;0.73;;;0.63;;
40373;SDS011;26079;45.958;12.492;2023-05-19T12:52:57;1.23;;;0.70;;
40373;SDS011;26079;45.958;12.492;2023-05-19T12:58:13;1.88;;;0.50;;
40373;SDS011;26079;45.958;12.492;2023-05-19T13:00:44;0.70;;;0.70;;
40373;SDS011;26079;45.958;12.492;2023-05-19T13:03:15;0.93;;;0.63;;
40373;SDS011;26079;45.958;12.492;2023-05-19T13:05:43;0.63;;;0.60;;
40373;SDS011;26079;45.958;12.492;2023-05-19T13:08:16;2.90;;;0.90;;
40373;SDS011;26079;45.958;12.492;2023-05-19T13:10:44;1.10;;;0.90;;
40373;SDS011;26079;45.958;12.492;2023-05-19T13:13:10;1.77;;;0.77;;
40373;SDS011;26079;45.958;12.492;2023-05-19T13:15:37;0.98;;;0.80;;
40373;SDS011;26079;45.958;12.492;2023-05-19T13:18:08;1.63;;;0.70;;
40373;SDS011;26079;45.958;12.492;2023-05-19T13:20:35;0.93;;;0.70;;
40373;SDS011;26079;45.958;12.492;2023-05-19T13:23:02;3.40;;;1.13;;
40373;SDS011;26079;45.958;12.492;2023-05-19T13:25:29;2.13;;;0.98;;
40373;SDS011;26079;45.958;12.492;2023-05-19T13:27:55;2.63;;;0.82;;
40373;SDS011;26079;45.958;12.492;2023-05-19T13:30:20;0.90;;;0.80;;
40373;SDS011;26079;45.958;12.492;2023-05-19T13:32:47;1.92;;;0.95;;
40373;SDS011;26079;45.958;12.492;2023-05-19T13:35:13;2.80;;;1.48;;
40373;SDS011;26079;45.958;12.492;2023-05-19T13:37:40;1.67;;;1.00;;
40373;SDS011;26079;45.958;12.492;2023-05-19T13:40:06;1.30;;;0.90;;
40373;SDS011;26079;45.958;12.492;2023-05-19T13:42:32;2.55;;;0.80;;
40373;SDS011;26079;45.958;12.492;2023-05-19T13:44:59;2.63;;;1.10;;
40373;SDS011;26079;45.958;12.492;2023-05-19T13:47:25;4.32;;;1.15;;
40373;SDS011;26079;45.958;12.492;2023-05-19T13:49:51;2.33;;;1.15;;
40373;SDS011;26079;45.958;12.492;2023-05-19T13:52:27;1.10;;;1.00;;
40373;SDS011;26079;45.958;12.492;2023-05-19T13:54:53;1.45;;;1.33;;
40373;SDS011;26079;45.958;12.492;2023-05-19T13:57:20;1.33;;;1.10;;
40373;SDS011;26079;45.958;12.492;2023-05-19T13:59:50;5.53;;;1.88;;
40373;SDS011;26079;45.958;12.492;2023-05-19T14:02:16;4.75;;;1.67;;
40373;SDS011;26079;45.958;12.492;2023-05-19T14:04:42;3.58;;;1.33;;
40373;SDS011;26079;45.958;12.492;2023-05-19T14:07:08;1.48;;;1.20;;
40373;SDS011;26079;45.958;12.492;2023-05-19T14:09:34;5.22;;;1.20;;
40373;SDS011;26079;45.958;12.492;2023-05-19T14:12:00;5.53;;;1.40;;
40373;SDS011;26079;45.958;12.492;2023-05-19T14:14:26;3.75;;;1.15;;
40373;SDS011;26079;45.958;12.492;2023-05-19T14:16:52;6.15;;;1.08;;
40373;SDS011;26079;45.958;12.492;2023-05-19T14:19:18;1.95;;;1.48;;
40373;SDS011;26079;45.958;12.492;2023-05-19T14:21:45;4.20;;;1.88;;
40373;SDS011;26079;45.958;12.492;2023-05-19T14:24:10;5.13;;;1.55;;
40373;SDS011;26079;45.958;12.492;2023-05-19T14:26:36;3.38;;;1.17;;
40373;SDS011;26079;45.958;12.492;2023-05-19T14:29:02;4.03;;;1.67;;
40373;SDS011;26079;45.958;12.492;2023-05-19T14:31:27;7.22;;;1.90;;
40373;SDS011;26079;45.958;12.492;2023-05-19T14:33:53;4.15;;;2.03;;
40373;SDS011;26079;45.958;12.492;2023-05-19T14:36:19;9.18;;;2.15;;
40373;SDS011;26079;45.958;12.492;2023-05-19T14:38:45;2.22;;;1.52;;
40373;SDS011;26079;45.958;12.492;2023-05-19T14:41:10;8.35;;;2.38;;
40373;SDS011;26079;45.958;12.492;2023-05-19T14:43:36;5.53;;;1.90;;
40373;SDS011;26079;45.958;12.492;2023-05-19T14:46:02;10.60;;;2.15;;
40373;SDS011;26079;45.958;12.492;2023-05-19T14:48:27;5.05;;;1.65;;
40373;SDS011;26079;45.958;12.492;2023-05-19T14:50:53;2.85;;;1.73;;
40373;SDS011;26079;45.958;12.492;2023-05-19T14:53:18;1.67;;;1.55;;
40373;SDS011;26079;45.958;12.492;2023-05-19T14:55:46;2.00;;;1.88;;
40373;SDS011;26079;45.958;12.492;2023-05-19T14:58:13;3.67;;;1.90;;
40373;SDS011;26079;45.958;12.492;2023-05-19T15:00:40;5.28;;;1.35;;
40373;SDS011;26079;45.958;12.492;2023-05-19T15:03:06;4.93;;;1.95;;
40373;SDS011;26079;45.958;12.492;2023-05-19T15:05:32;5.13;;;1.98;;
40373;SDS011;26079;45.958;12.492;2023-05-19T15:07:57;2.03;;;1.80;;
40373;SDS011;26079;45.958;12.492;2023-05-19T15:10:23;1.67;;;1.58;;